createdAt,value
2023-03-20T00:00:31.275Z,1.35
2023-03-20T00:03:37.756Z,0.49
2023-03-20T00:06:45.699Z,0.34
2023-03-20T00:09:52.080Z,0.30
2023-03-20T00:12:58.644Z,0.36
2023-03-20T00:16:07.000Z,0.96
2023-03-20T00:19:17.673Z,0.92
2023-03-20T00:22:25.653Z,1.01
2023-03-20T00:25:32.783Z,0.64
2023-03-20T00:28:41.232Z,0.54
2023-03-20T00:31:47.879Z,0.68
2023-03-20T00:34:54.497Z,0.56
2023-03-20T00:38:02.066Z,0.88
2023-03-20T00:41:23.093Z,0.59
2023-03-20T00:44:34.828Z,1.07
2023-03-20T00:47:42.108Z,0.90
2023-03-20T00:50:49.645Z,1.15
2023-03-20T00:53:57.430Z,0.68
2023-03-20T00:57:07.823Z,0.32
2023-03-20T01:00:34.474Z,0.26
2023-03-20T01:03:40.885Z,0.18
2023-03-20T01:06:47.718Z,0.33
2023-03-20T01:09:55.601Z,0.33
2023-03-20T01:13:03.294Z,-0.02
2023-03-20T01:16:21.291Z,-0.28
2023-03-20T01:19:27.725Z,-0.25
2023-03-20T01:22:34.099Z,-0.32
2023-03-20T01:25:42.116Z,-0.42
2023-03-20T01:28:48.738Z,0.00
2023-03-20T01:31:55.494Z,-0.32
2023-03-20T01:35:01.413Z,-0.55
2023-03-20T01:38:13.210Z,-0.22
2023-03-20T01:41:21.668Z,-0.35
2023-03-20T01:44:32.212Z,-0.48
2023-03-20T01:47:38.749Z,-0.08
2023-03-20T01:50:45.432Z,0.08
2023-03-20T01:53:55.894Z,0.40
2023-03-20T01:57:09.336Z,0.63
2023-03-20T02:00:17.184Z,0.51
2023-03-20T02:03:23.461Z,-0.16
2023-03-20T02:06:29.825Z,-0.18
2023-03-20T02:09:36.305Z,-0.25
2023-03-20T02:12:44.661Z,-0.32
2023-03-20T02:16:00.688Z,-0.09
2023-03-20T02:19:11.723Z,-0.16
2023-03-20T02:22:51.255Z,-0.53
2023-03-20T02:26:20.324Z,-0.67
2023-03-20T02:29:51.977Z,-0.58
2023-03-20T02:33:34.630Z,-0.50
2023-03-20T02:37:03.937Z,-0.73
2023-03-20T02:40:22.734Z,-0.39
2023-03-20T02:43:38.082Z,-0.82
2023-03-20T02:46:54.071Z,-0.18
2023-03-20T02:50:09.875Z,-0.51
2023-03-20T02:53:26.284Z,-0.16
2023-03-20T02:56:38.962Z,-0.14
2023-03-20T02:59:52.036Z,0.11
2023-03-20T03:03:04.048Z,0.05
2023-03-20T03:06:14.500Z,0.09
2023-03-20T03:09:24.459Z,-0.21
2023-03-20T03:12:37.906Z,-0.41
2023-03-20T03:15:47.514Z,-0.93
2023-03-20T03:19:05.234Z,-0.63
2023-03-20T03:22:12.378Z,-1.08
2023-03-20T03:25:19.179Z,-0.32
2023-03-20T03:28:37.194Z,-0.62
2023-03-20T03:31:44.550Z,-0.86
2023-03-20T03:34:51.030Z,-0.65
2023-03-20T03:38:01.774Z,-0.69
2023-03-20T03:41:20.800Z,-1.19
2023-03-20T03:44:33.125Z,-1.04
2023-03-20T03:47:42.976Z,-0.88
2023-03-20T03:50:54.536Z,-1.16
2023-03-20T03:54:05.323Z,-1.05
2023-03-20T03:57:14.309Z,-0.98
2023-03-20T04:00:25.572Z,-1.06
2023-03-20T04:03:37.800Z,-0.85
2023-03-20T04:06:44.415Z,-1.08
2023-03-20T04:09:50.791Z,-0.81
2023-03-20T04:12:57.596Z,-0.92
2023-03-20T04:16:05.884Z,-0.88
2023-03-20T04:19:12.590Z,-0.54
2023-03-20T04:22:18.868Z,-1.16
2023-03-20T04:25:27.643Z,-1.68
2023-03-20T04:28:34.286Z,-1.26
2023-03-20T04:31:42.510Z,-1.55
2023-03-20T04:34:49.059Z,-1.43
2023-03-20T04:37:55.679Z,-0.36
2023-03-20T04:41:01.944Z,-0.40
2023-03-20T04:44:08.192Z,-0.06
2023-03-20T04:47:15.987Z,-0.25
2023-03-20T04:50:22.452Z,-0.13
2023-03-20T04:53:28.538Z,-0.19
2023-03-20T04:56:34.486Z,-0.21
2023-03-20T04:59:40.734Z,-0.62
2023-03-20T05:02:48.322Z,-1.24
2023-03-20T05:05:54.881Z,-1.01
2023-03-20T05:09:01.869Z,-0.94
2023-03-20T05:12:09.207Z,-0.42
2023-03-20T05:15:15.384Z,0.27
2023-03-20T05:18:22.764Z,0.14
2023-03-20T05:21:28.932Z,0.11
2023-03-20T05:24:35.208Z,-0.03
2023-03-20T05:27:41.805Z,0.46
2023-03-20T05:30:48.194Z,0.43
2023-03-20T05:33:55.746Z,0.44
2023-03-20T05:37:01.900Z,0.64
2023-03-20T05:40:09.842Z,0.54
2023-03-20T05:43:16.277Z,1.05
2023-03-20T05:46:22.982Z,0.90
2023-03-20T05:49:30.919Z,1.12
2023-03-20T05:52:37.167Z,1.29
2023-03-20T05:55:44.809Z,1.39
2023-03-20T05:58:52.184Z,1.46
2023-03-20T06:01:58.584Z,1.30
2023-03-20T06:05:06.809Z,1.26
2023-03-20T06:08:13.154Z,1.59
2023-03-20T06:11:19.660Z,2.11
2023-03-20T06:14:25.675Z,2.36
2023-03-20T06:17:31.795Z,2.89
2023-03-20T06:20:39.478Z,3.16
2023-03-20T06:23:45.906Z,3.52
2023-03-20T06:26:52.317Z,3.15
2023-03-20T06:29:58.530Z,4.01
2023-03-20T06:33:05.127Z,4.02
2023-03-20T06:36:13.190Z,4.12
2023-03-20T06:39:19.859Z,4.21
2023-03-20T06:42:26.450Z,4.88
2023-03-20T06:45:33.286Z,5.00
2023-03-20T06:48:39.621Z,5.28
2023-03-20T06:51:48.009Z,5.58
2023-03-20T06:54:54.397Z,5.24
2023-03-20T06:58:00.777Z,5.38
2023-03-20T07:01:11.110Z,5.56
2023-03-20T07:04:17.653Z,5.42
2023-03-20T07:07:25.531Z,5.68
2023-03-20T07:10:32.227Z,5.84
2023-03-20T07:13:39.286Z,6.40
2023-03-20T07:16:45.772Z,6.70
2023-03-20T07:19:51.984Z,6.47
2023-03-20T07:23:00.025Z,6.65
2023-03-20T07:26:06.879Z,7.15
2023-03-20T07:29:14.039Z,7.50
2023-03-20T07:32:20.961Z,7.63
2023-03-20T07:35:27.460Z,7.55
2023-03-20T07:38:34.911Z,7.88
2023-03-20T07:41:41.709Z,7.73
2023-03-20T07:44:48.199Z,8.16
2023-03-20T07:47:54.598Z,8.87
2023-03-20T07:51:00.823Z,8.73
2023-03-20T07:54:08.328Z,9.05
2023-03-20T07:57:14.651Z,8.52
2023-03-20T08:00:21.623Z,8.55
2023-03-20T08:03:27.945Z,9.37
2023-03-20T08:06:34.827Z,9.47
2023-03-20T08:09:42.795Z,9.95
2023-03-20T08:12:49.360Z,9.72
2023-03-20T08:15:55.572Z,9.61
2023-03-20T08:19:03.404Z,10.08
2023-03-20T08:22:09.798Z,10.13
2023-03-20T08:25:17.480Z,10.59
2023-03-20T08:28:40.018Z,10.66
2023-03-20T08:31:50.904Z,10.73
2023-03-20T08:34:57.290Z,11.19
2023-03-20T08:38:04.354Z,11.16
2023-03-20T08:41:12.028Z,10.87
2023-03-20T08:44:18.272Z,11.55
2023-03-20T08:47:24.477Z,12.30
2023-03-20T08:50:31.720Z,12.10
2023-03-20T08:53:38.258Z,12.09
2023-03-20T08:56:46.233Z,11.60
2023-03-20T08:59:52.534Z,12.47
2023-03-20T09:02:59.080Z,12.73
2023-03-20T09:06:07.757Z,13.42
2023-03-20T09:09:16.000Z,13.16
2023-03-20T09:12:24.193Z,13.36
2023-03-20T09:15:30.585Z,13.49
2023-03-20T09:18:37.061Z,13.77
2023-03-20T09:21:43.149Z,14.30
2023-03-20T09:24:49.719Z,13.90
2023-03-20T09:27:57.504Z,14.77
2023-03-20T09:31:04.018Z,14.80
2023-03-20T09:34:10.527Z,14.72
2023-03-20T09:37:16.569Z,14.68
2023-03-20T09:40:28.341Z,14.85
2023-03-20T09:43:52.741Z,14.58
2023-03-20T09:47:20.238Z,14.83
2023-03-20T09:50:33.472Z,15.05
2023-03-20T09:53:43.349Z,15.93
2023-03-20T09:56:51.365Z,16.07
2023-03-20T10:00:03.062Z,16.63
2023-03-20T10:03:18.734Z,16.95
2023-03-20T10:06:25.570Z,16.20
2023-03-20T10:09:32.023Z,16.53
2023-03-20T10:12:50.888Z,16.98
2023-03-20T10:16:04.421Z,17.30
2023-03-20T10:19:22.603Z,17.21
2023-03-20T10:22:34.194Z,17.82
2023-03-20T10:25:44.302Z,17.11
2023-03-20T10:28:55.877Z,17.52
2023-03-20T10:32:12.597Z,18.17
2023-03-20T10:35:25.222Z,18.70
2023-03-20T10:38:41.291Z,17.53
2023-03-20T10:41:54.450Z,17.85
2023-03-20T10:45:07.394Z,18.72
2023-03-20T10:48:21.602Z,18.90
2023-03-20T10:51:47.317Z,18.63
2023-03-20T10:54:57.954Z,18.31
2023-03-20T10:58:14.808Z,18.63
2023-03-20T11:01:21.477Z,19.23
2023-03-20T11:04:29.559Z,18.99
2023-03-20T11:07:38.754Z,18.47
2023-03-20T11:10:46.404Z,19.60
2023-03-20T11:13:52.795Z,19.51
2023-03-20T11:17:04.017Z,19.72
2023-03-20T11:20:15.588Z,19.43
2023-03-20T11:23:26.908Z,20.18
2023-03-20T11:26:37.466Z,19.91
2023-03-20T11:29:47.244Z,20.02
2023-03-20T11:32:57.080Z,19.19
2023-03-20T11:36:13.143Z,20.39
2023-03-20T11:39:25.191Z,19.77
2023-03-20T11:42:32.329Z,19.66
2023-03-20T11:45:41.196Z,20.37
2023-03-20T11:48:47.957Z,20.44
2023-03-20T11:51:57.448Z,20.25
2023-03-20T11:55:08.252Z,20.93
2023-03-20T11:58:18.296Z,21.17
2023-03-20T12:01:24.731Z,20.40
2023-03-20T12:04:34.063Z,21.01
2023-03-20T12:07:41.537Z,21.00
2023-03-20T12:10:55.487Z,21.18
2023-03-20T12:14:04.777Z,21.29
2023-03-20T12:17:35.372Z,20.69
2023-03-20T12:20:46.621Z,20.85
2023-03-20T12:23:58.358Z,21.58
2023-03-20T12:27:25.352Z,21.07
2023-03-20T12:30:45.525Z,21.23
2023-03-20T12:33:56.499Z,21.01
2023-03-20T12:37:04.366Z,21.06
2023-03-20T12:40:17.516Z,21.26
2023-03-20T12:43:27.321Z,20.63
2023-03-20T12:46:44.559Z,20.99
2023-03-20T12:49:58.608Z,20.80
2023-03-20T12:53:27.215Z,21.34
2023-03-20T12:56:53.797Z,21.08
2023-03-20T13:00:12.896Z,21.77
2023-03-20T13:03:33.390Z,21.88
2023-03-20T13:06:50.593Z,22.08
2023-03-20T13:10:13.871Z,21.99
2023-03-20T13:13:31.297Z,22.12
2023-03-20T13:16:49.467Z,21.28
2023-03-20T13:20:14.375Z,21.47
2023-03-20T13:23:25.605Z,21.29
2023-03-20T13:26:39.255Z,21.98
2023-03-20T13:29:53.982Z,21.73
2023-03-20T13:33:10.916Z,21.46
2023-03-20T13:36:31.754Z,21.78
2023-03-20T13:39:44.295Z,21.25
2023-03-20T13:42:55.894Z,21.11
2023-03-20T13:46:08.926Z,21.87
2023-03-20T13:49:22.900Z,21.33
2023-03-20T13:52:33.484Z,20.96
2023-03-20T13:55:47.131Z,21.71
2023-03-20T13:59:03.854Z,22.72
2023-03-20T14:02:25.188Z,21.92
2023-03-20T14:05:37.891Z,22.49
2023-03-20T14:08:50.825Z,21.80
2023-03-20T14:12:00.028Z,21.51
2023-03-20T14:15:06.708Z,21.45
2023-03-20T14:18:19.283Z,22.01
2023-03-20T14:21:25.791Z,21.02
2023-03-20T14:24:37.956Z,21.98
2023-03-20T14:27:57.162Z,21.97
2023-03-20T14:31:15.195Z,21.20
2023-03-20T14:34:24.844Z,22.15
2023-03-20T14:37:39.842Z,22.25
2023-03-20T14:40:54.158Z,21.39
2023-03-20T14:44:16.011Z,21.48
2023-03-20T14:47:31.810Z,21.33
2023-03-20T14:50:42.849Z,21.49
2023-03-20T14:53:56.935Z,20.81
2023-03-20T14:57:11.484Z,20.41
2023-03-20T15:00:20.876Z,20.09
2023-03-20T15:03:27.302Z,20.06
2023-03-20T15:06:36.937Z,19.79
2023-03-20T15:09:45.441Z,19.49
2023-03-20T15:12:53.301Z,19.45
2023-03-20T15:16:04.077Z,19.17
2023-03-20T15:19:19.261Z,19.05
2023-03-20T15:22:26.931Z,18.62
2023-03-20T15:25:39.857Z,18.42
2023-03-20T15:28:47.649Z,18.04
2023-03-20T15:32:12.861Z,18.12
2023-03-20T15:35:23.410Z,18.60
2023-03-20T15:38:35.512Z,18.52
2023-03-20T15:41:45.641Z,18.57
2023-03-20T15:44:55.046Z,18.27
2023-03-20T15:48:02.766Z,17.97
2023-03-20T15:51:12.221Z,17.80
2023-03-20T15:54:21.112Z,17.31
2023-03-20T15:57:34.951Z,17.66
2023-03-20T16:00:46.791Z,17.12
2023-03-20T16:03:54.547Z,16.74
2023-03-20T16:07:01.828Z,16.54
2023-03-20T16:10:18.949Z,16.46
2023-03-20T16:13:25.853Z,16.33
2023-03-20T16:16:37.608Z,16.21
2023-03-20T16:19:44.321Z,15.99
2023-03-20T16:22:52.444Z,15.69
2023-03-20T16:26:01.297Z,15.49
2023-03-20T16:29:08.290Z,14.87
2023-03-20T16:32:26.907Z,15.12
2023-03-20T16:35:39.569Z,15.01
2023-03-20T16:38:57.267Z,14.58
2023-03-20T16:42:20.512Z,14.53
2023-03-20T16:45:30.459Z,14.30
2023-03-20T16:48:39.359Z,14.24
2023-03-20T16:51:46.078Z,14.11
2023-03-20T16:54:52.385Z,14.74
2023-03-20T16:58:02.340Z,14.94
2023-03-20T17:01:10.797Z,14.78
2023-03-20T17:04:21.824Z,14.43
2023-03-20T17:07:30.788Z,14.64
2023-03-20T17:10:39.814Z,14.17
2023-03-20T17:13:48.795Z,14.09
2023-03-20T17:16:56.814Z,14.44
2023-03-20T17:20:03.105Z,13.48
2023-03-20T17:23:14.865Z,13.34
2023-03-20T17:26:21.212Z,13.46
2023-03-20T17:29:28.785Z,13.89
2023-03-20T17:32:35.354Z,14.33
2023-03-20T17:35:42.081Z,13.72
2023-03-20T17:38:48.268Z,13.40
2023-03-20T17:41:54.656Z,13.18
2023-03-20T17:45:04.389Z,13.48
2023-03-20T17:48:16.717Z,13.74
2023-03-20T17:51:23.140Z,13.40
2023-03-20T17:54:29.387Z,13.03
2023-03-20T17:57:37.405Z,13.04
2023-03-20T18:00:45.502Z,12.71
2023-03-20T18:03:52.279Z,12.38
2023-03-20T18:06:58.536Z,12.21
2023-03-20T18:10:05.234Z,12.03
2023-03-20T18:13:11.416Z,11.76
2023-03-20T18:16:21.619Z,11.64
2023-03-20T18:19:30.130Z,11.90
2023-03-20T18:22:36.459Z,11.91
2023-03-20T18:25:43.250Z,12.20
2023-03-20T18:28:51.255Z,12.00
2023-03-20T18:31:59.054Z,11.70
2023-03-20T18:35:06.139Z,11.64
2023-03-20T18:38:14.277Z,11.60
2023-03-20T18:41:21.112Z,11.42
2023-03-20T18:44:27.270Z,11.69
2023-03-20T18:47:34.896Z,11.45
2023-03-20T18:50:43.222Z,11.69
2023-03-20T18:53:49.824Z,11.67
2023-03-20T18:56:59.969Z,11.49
2023-03-20T19:00:18.516Z,11.80
2023-03-20T19:03:28.645Z,12.16
2023-03-20T19:06:35.091Z,12.01
2023-03-20T19:09:41.652Z,12.02
2023-03-20T19:12:47.711Z,11.95
2023-03-20T19:15:53.787Z,12.12
2023-03-20T19:19:03.246Z,11.68
2023-03-20T19:22:22.424Z,12.01
2023-03-20T19:25:39.229Z,11.70
2023-03-20T19:28:49.098Z,11.36
2023-03-20T19:31:57.097Z,11.09
2023-03-20T19:38:35.468Z,10.69
2023-03-20T19:41:41.952Z,10.48
2023-03-20T19:44:48.157Z,10.31
2023-03-20T19:47:54.788Z,10.21
2023-03-20T19:51:04.573Z,9.91
2023-03-20T19:54:10.868Z,9.83
2023-03-20T19:57:17.105Z,9.78
2023-03-20T20:03:50.995Z,9.59
2023-03-20T20:07:26.685Z,9.39
2023-03-20T20:10:26.438Z,9.42
2023-03-20T20:13:47.029Z,9.40
2023-03-20T20:17:01.291Z,9.31
2023-03-20T20:20:09.637Z,9.15
2023-03-20T20:23:19.973Z,9.10
2023-03-20T20:26:30.907Z,8.91
2023-03-20T20:29:38.098Z,8.80
2023-03-20T20:32:44.885Z,8.80
2023-03-20T20:36:27.877Z,8.83
2023-03-20T20:39:21.276Z,8.69
2023-03-20T20:42:27.712Z,8.54
2023-03-20T20:45:35.172Z,8.50
2023-03-20T20:48:43.165Z,8.56
2023-03-20T20:51:50.147Z,8.57
2023-03-20T20:55:00.988Z,8.53
2023-03-20T20:58:13.725Z,8.24
2023-03-20T21:01:20.008Z,8.26
2023-03-20T21:04:26.577Z,7.66
2023-03-20T21:07:32.828Z,7.84
2023-03-20T21:10:40.960Z,7.78
2023-03-20T21:13:47.166Z,7.83
2023-03-20T21:16:57.232Z,7.95
2023-03-20T21:20:03.211Z,8.17
2023-03-20T21:23:09.595Z,8.27
2023-03-20T21:26:17.695Z,8.43
2023-03-20T21:29:23.868Z,8.40
2023-03-20T21:32:32.388Z,8.46
2023-03-20T21:35:40.502Z,8.46
2023-03-20T21:39:06.915Z,8.58
2023-03-20T21:42:14.160Z,8.46
2023-03-20T21:46:13.768Z,8.53
2023-03-20T21:52:56.901Z,8.40
2023-03-20T21:56:41.936Z,8.50
2023-03-20T22:02:36.643Z,7.85
2023-03-20T22:09:52.213Z,7.75
2023-03-20T22:23:37.094Z,8.34
2023-03-20T22:31:01.588Z,7.74
2023-03-20T22:40:59.318Z,7.84
2023-03-20T22:47:04.454Z,7.77
2023-03-20T22:50:12.613Z,7.65
2023-03-20T22:53:19.514Z,7.70
2023-03-20T22:56:25.975Z,7.69
2023-03-20T22:59:31.879Z,7.59
2023-03-20T23:02:38.281Z,7.93
2023-03-20T23:05:46.101Z,8.14
2023-03-20T23:08:57.083Z,8.29
2023-03-20T23:12:04.699Z,8.32
2023-03-20T23:15:11.013Z,8.31
2023-03-20T23:18:17.042Z,8.33
2023-03-20T23:21:25.634Z,8.24
2023-03-20T23:24:31.728Z,8.20
2023-03-20T23:27:37.804Z,8.20
2023-03-20T23:30:49.762Z,8.16
2023-03-20T23:34:03.031Z,7.91
2023-03-20T23:37:10.904Z,7.79
2023-03-20T23:40:17.534Z,7.98
2023-03-20T23:43:24.239Z,7.99
2023-03-20T23:46:31.108Z,7.82
2023-03-20T23:49:37.613Z,7.70
2023-03-20T23:56:14.097Z,7.69
2023-03-20T23:59:21.973Z,7.95
